sensor_id;sensor_type;location;lat;lon;timestamp;P1;durP1;ratioP1;P2;durP2;ratioP2
14778;SDS011;7481;53.750;10.570;2023-02-01T00:01:40;16.73;;;4.57;;
14778;SDS011;7481;53.750;10.570;2023-02-01T00:04:27;20.70;;;3.77;;
14778;SDS011;7481;53.750;10.570;2023-02-01T00:07:15;16.33;;;4.03;;
14778;SDS011;7481;53.750;10.570;2023-02-01T00:10:03;20.37;;;4.57;;
14778;SDS011;7481;53.750;10.570;2023-02-01T00:12:51;17.13;;;3.87;;
14778;SDS011;7481;53.750;10.570;2023-02-01T00:15:38;17.60;;;4.23;;
14778;SDS011;7481;53.750;10.570;2023-02-01T00:18:26;20.23;;;4.80;;
14778;SDS011;7481;53.750;10.570;2023-02-01T00:21:13;15.07;;;4.23;;
14778;SDS011;7481;53.750;10.570;2023-02-01T00:24:01;21.23;;;5.13;;
14778;SDS011;7481;53.750;10.570;2023-02-01T00:26:49;16.30;;;3.30;;
14778;SDS011;7481;53.750;10.570;2023-02-01T00:29:36;19.40;;;3.83;;
14778;SDS011;7481;53.750;10.570;2023-02-01T00:32:24;18.53;;;4.03;;
14778;SDS011;7481;53.750;10.570;2023-02-01T00:35:11;14.97;;;4.27;;
14778;SDS011;7481;53.750;10.570;2023-02-01T00:37:59;18.13;;;4.77;;
14778;SDS011;7481;53.750;10.570;2023-02-01T00:40:47;18.17;;;3.27;;
14778;SDS011;7481;53.750;10.570;2023-02-01T00:43:35;20.40;;;5.23;;
14778;SDS011;7481;53.750;10.570;2023-02-01T00:46:22;18.37;;;4.17;;
14778;SDS011;7481;53.750;10.570;2023-02-01T00:49:10;24.10;;;5.30;;
14778;SDS011;7481;53.750;10.570;2023-02-01T00:51:57;16.10;;;3.80;;
14778;SDS011;7481;53.750;10.570;2023-02-01T00:54:45;13.73;;;4.63;;
14778;SDS011;7481;53.750;10.570;2023-02-01T00:57:33;23.60;;;4.83;;
14778;SDS011;7481;53.750;10.570;2023-02-01T01:00:20;18.13;;;3.90;;
14778;SDS011;7481;53.750;10.570;2023-02-01T01:03:08;17.33;;;3.53;;
14778;SDS011;7481;53.750;10.570;2023-02-01T01:06:06;22.63;;;4.33;;
14778;SDS011;7481;53.750;10.570;2023-02-01T01:08:56;18.80;;;4.80;;
14778;SDS011;7481;53.750;10.570;2023-02-01T01:11:44;14.93;;;3.80;;
14778;SDS011;7481;53.750;10.570;2023-02-01T01:14:32;20.37;;;5.23;;
14778;SDS011;7481;53.750;10.570;2023-02-01T01:17:19;28.93;;;5.20;;
14778;SDS011;7481;53.750;10.570;2023-02-01T01:20:07;21.80;;;4.37;;
14778;SDS011;7481;53.750;10.570;2023-02-01T01:22:54;20.53;;;4.27;;
14778;SDS011;7481;53.750;10.570;2023-02-01T01:25:42;26.70;;;4.57;;
14778;SDS011;7481;53.750;10.570;2023-02-01T01:28:29;28.03;;;5.03;;
14778;SDS011;7481;53.750;10.570;2023-02-01T01:31:18;19.13;;;4.70;;
14778;SDS011;7481;53.750;10.570;2023-02-01T01:34:06;20.50;;;5.57;;
14778;SDS011;7481;53.750;10.570;2023-02-01T01:36:53;22.37;;;5.53;;
14778;SDS011;7481;53.750;10.570;2023-02-01T01:39:41;21.77;;;5.27;;
14778;SDS011;7481;53.750;10.570;2023-02-01T01:42:28;21.53;;;4.37;;
14778;SDS011;7481;53.750;10.570;2023-02-01T01:45:26;18.53;;;5.33;;
14778;SDS011;7481;53.750;10.570;2023-02-01T01:48:19;19.90;;;4.30;;
14778;SDS011;7481;53.750;10.570;2023-02-01T01:51:08;25.60;;;4.50;;
14778;SDS011;7481;53.750;10.570;2023-02-01T01:53:59;17.17;;;4.03;;
14778;SDS011;7481;53.750;10.570;2023-02-01T01:56:49;20.33;;;4.70;;
14778;SDS011;7481;53.750;10.570;2023-02-01T01:59:38;24.53;;;4.03;;
14778;SDS011;7481;53.750;10.570;2023-02-01T02:02:27;18.67;;;4.90;;
14778;SDS011;7481;53.750;10.570;2023-02-01T02:05:15;26.17;;;6.03;;
14778;SDS011;7481;53.750;10.570;2023-02-01T02:08:02;23.70;;;5.07;;
14778;SDS011;7481;53.750;10.570;2023-02-01T02:10:50;19.30;;;4.20;;
14778;SDS011;7481;53.750;10.570;2023-02-01T02:13:48;30.37;;;6.03;;
14778;SDS011;7481;53.750;10.570;2023-02-01T02:31:46;21.10;;;5.00;;
14778;SDS011;7481;53.750;10.570;2023-02-01T02:34:38;31.67;;;6.10;;
14778;SDS011;7481;53.750;10.570;2023-02-01T02:40:27;26.07;;;6.33;;
14778;SDS011;7481;53.750;10.570;2023-02-01T02:43:22;21.83;;;5.17;;
14778;SDS011;7481;53.750;10.570;2023-02-01T02:46:31;27.03;;;5.50;;
14778;SDS011;7481;53.750;10.570;2023-02-01T02:49:42;26.00;;;5.57;;
14778;SDS011;7481;53.750;10.570;2023-02-01T02:52:55;27.70;;;5.63;;
14778;SDS011;7481;53.750;10.570;2023-02-01T02:56:03;24.80;;;5.27;;
14778;SDS011;7481;53.750;10.570;2023-02-01T02:59:12;30.37;;;5.83;;
14778;SDS011;7481;53.750;10.570;2023-02-01T03:02:19;17.03;;;4.60;;
14778;SDS011;7481;53.750;10.570;2023-02-01T03:05:31;25.70;;;5.93;;
14778;SDS011;7481;53.750;10.570;2023-02-01T03:08:20;25.43;;;5.30;;
14778;SDS011;7481;53.750;10.570;2023-02-01T03:11:12;31.03;;;6.23;;
14778;SDS011;7481;53.750;10.570;2023-02-01T03:14:00;19.57;;;5.13;;
14778;SDS011;7481;53.750;10.570;2023-02-01T03:16:52;30.30;;;5.90;;
14778;SDS011;7481;53.750;10.570;2023-02-01T03:19:45;25.13;;;5.10;;
14778;SDS011;7481;53.750;10.570;2023-02-01T03:22:36;15.97;;;4.60;;
14778;SDS011;7481;53.750;10.570;2023-02-01T03:25:26;21.47;;;3.57;;
14778;SDS011;7481;53.750;10.570;2023-02-01T03:28:14;21.20;;;3.83;;
14778;SDS011;7481;53.750;10.570;2023-02-01T03:31:02;13.23;;;3.13;;
14778;SDS011;7481;53.750;10.570;2023-02-01T03:33:50;10.13;;;3.13;;
14778;SDS011;7481;53.750;10.570;2023-02-01T03:36:43;10.67;;;3.27;;
14778;SDS011;7481;53.750;10.570;2023-02-01T03:39:39;17.13;;;2.90;;
14778;SDS011;7481;53.750;10.570;2023-02-01T03:42:35;12.50;;;3.47;;
14778;SDS011;7481;53.750;10.570;2023-02-01T03:45:28;18.03;;;3.73;;
14778;SDS011;7481;53.750;10.570;2023-02-01T03:48:16;17.30;;;3.20;;
14778;SDS011;7481;53.750;10.570;2023-02-01T03:51:04;17.30;;;3.27;;
14778;SDS011;7481;53.750;10.570;2023-02-01T03:53:53;16.73;;;4.17;;
14778;SDS011;7481;53.750;10.570;2023-02-01T03:56:42;16.83;;;3.40;;
14778;SDS011;7481;53.750;10.570;2023-02-01T03:59:30;17.47;;;3.87;;
14778;SDS011;7481;53.750;10.570;2023-02-01T04:02:18;22.60;;;4.70;;
14778;SDS011;7481;53.750;10.570;2023-02-01T04:05:06;14.63;;;3.53;;
14778;SDS011;7481;53.750;10.570;2023-02-01T04:07:53;12.17;;;3.47;;
14778;SDS011;7481;53.750;10.570;2023-02-01T04:10:41;18.83;;;3.90;;
14778;SDS011;7481;53.750;10.570;2023-02-01T04:13:28;18.30;;;3.70;;
14778;SDS011;7481;53.750;10.570;2023-02-01T04:16:16;13.87;;;3.63;;
14778;SDS011;7481;53.750;10.570;2023-02-01T04:19:03;20.93;;;3.80;;
14778;SDS011;7481;53.750;10.570;2023-02-01T04:21:50;15.67;;;3.13;;
14778;SDS011;7481;53.750;10.570;2023-02-01T04:24:38;11.27;;;3.00;;
14778;SDS011;7481;53.750;10.570;2023-02-01T04:27:26;7.70;;;2.17;;
14778;SDS011;7481;53.750;10.570;2023-02-01T04:30:13;9.97;;;2.50;;
14778;SDS011;7481;53.750;10.570;2023-02-01T04:33:01;8.63;;;1.80;;
14778;SDS011;7481;53.750;10.570;2023-02-01T04:35:51;7.77;;;2.30;;
14778;SDS011;7481;53.750;10.570;2023-02-01T04:38:39;7.87;;;1.63;;
14778;SDS011;7481;53.750;10.570;2023-02-01T04:41:26;7.80;;;1.97;;
14778;SDS011;7481;53.750;10.570;2023-02-01T04:44:16;6.10;;;2.27;;
14778;SDS011;7481;53.750;10.570;2023-02-01T04:47:04;8.27;;;1.93;;
14778;SDS011;7481;53.750;10.570;2023-02-01T04:49:52;9.03;;;2.27;;
14778;SDS011;7481;53.750;10.570;2023-02-01T04:52:39;10.07;;;2.67;;
14778;SDS011;7481;53.750;10.570;2023-02-01T04:55:28;11.50;;;2.47;;
14778;SDS011;7481;53.750;10.570;2023-02-01T04:58:15;10.87;;;2.40;;
14778;SDS011;7481;53.750;10.570;2023-02-01T05:01:03;14.90;;;3.42;;
14778;SDS011;7481;53.750;10.570;2023-02-01T05:03:51;11.50;;;2.20;;
14778;SDS011;7481;53.750;10.570;2023-02-01T05:06:38;13.00;;;2.60;;
14778;SDS011;7481;53.750;10.570;2023-02-01T05:09:26;4.83;;;1.83;;
14778;SDS011;7481;53.750;10.570;2023-02-01T05:12:13;11.00;;;1.93;;
14778;SDS011;7481;53.750;10.570;2023-02-01T05:15:20;8.17;;;2.13;;
14778;SDS011;7481;53.750;10.570;2023-02-01T05:18:07;5.97;;;2.07;;
14778;SDS011;7481;53.750;10.570;2023-02-01T05:20:55;5.73;;;2.30;;
14778;SDS011;7481;53.750;10.570;2023-02-01T05:23:42;9.93;;;2.23;;
14778;SDS011;7481;53.750;10.570;2023-02-01T05:26:48;17.00;;;3.50;;
14778;SDS011;7481;53.750;10.570;2023-02-01T05:29:36;9.90;;;2.43;;
14778;SDS011;7481;53.750;10.570;2023-02-01T05:32:23;11.33;;;3.40;;
14778;SDS011;7481;53.750;10.570;2023-02-01T05:35:11;13.47;;;2.90;;
14778;SDS011;7481;53.750;10.570;2023-02-01T05:37:58;12.53;;;3.30;;
14778;SDS011;7481;53.750;10.570;2023-02-01T05:40:46;13.93;;;3.03;;
14778;SDS011;7481;53.750;10.570;2023-02-01T05:43:36;7.37;;;2.13;;
14778;SDS011;7481;53.750;10.570;2023-02-01T05:46:23;9.90;;;2.70;;
14778;SDS011;7481;53.750;10.570;2023-02-01T05:49:11;5.90;;;2.00;;
14778;SDS011;7481;53.750;10.570;2023-02-01T05:52:00;5.93;;;2.50;;
14778;SDS011;7481;53.750;10.570;2023-02-01T05:54:47;12.87;;;3.03;;
14778;SDS011;7481;53.750;10.570;2023-02-01T05:57:35;12.03;;;2.30;;
14778;SDS011;7481;53.750;10.570;2023-02-01T06:00:22;11.20;;;2.90;;
14778;SDS011;7481;53.750;10.570;2023-02-01T06:03:10;7.13;;;2.00;;
14778;SDS011;7481;53.750;10.570;2023-02-01T06:05:58;5.90;;;2.40;;
14778;SDS011;7481;53.750;10.570;2023-02-01T06:08:47;5.70;;;1.90;;
14778;SDS011;7481;53.750;10.570;2023-02-01T06:11:34;8.48;;;1.80;;
14778;SDS011;7481;53.750;10.570;2023-02-01T06:14:22;4.23;;;1.40;;
14778;SDS011;7481;53.750;10.570;2023-02-01T06:17:10;6.17;;;1.80;;
14778;SDS011;7481;53.750;10.570;2023-02-01T06:19:58;3.90;;;1.60;;
14778;SDS011;7481;53.750;10.570;2023-02-01T06:22:45;6.60;;;1.87;;
14778;SDS011;7481;53.750;10.570;2023-02-01T06:25:32;3.77;;;1.67;;
14778;SDS011;7481;53.750;10.570;2023-02-01T06:28:20;7.13;;;1.80;;
14778;SDS011;7481;53.750;10.570;2023-02-01T06:31:07;6.03;;;1.60;;
14778;SDS011;7481;53.750;10.570;2023-02-01T06:33:55;3.23;;;1.30;;
14778;SDS011;7481;53.750;10.570;2023-02-01T06:36:43;5.17;;;1.60;;
14778;SDS011;7481;53.750;10.570;2023-02-01T06:39:30;5.03;;;1.83;;
14778;SDS011;7481;53.750;10.570;2023-02-01T06:42:18;3.97;;;1.50;;
14778;SDS011;7481;53.750;10.570;2023-02-01T06:45:05;4.23;;;1.50;;
14778;SDS011;7481;53.750;10.570;2023-02-01T06:47:53;2.37;;;1.30;;
14778;SDS011;7481;53.750;10.570;2023-02-01T06:50:40;1.93;;;1.20;;
14778;SDS011;7481;53.750;10.570;2023-02-01T06:53:28;2.77;;;1.30;;
14778;SDS011;7481;53.750;10.570;2023-02-01T06:56:16;1.70;;;1.27;;
14778;SDS011;7481;53.750;10.570;2023-02-01T06:59:04;2.70;;;1.40;;
14778;SDS011;7481;53.750;10.570;2023-02-01T07:01:51;7.63;;;2.00;;
14778;SDS011;7481;53.750;10.570;2023-02-01T07:04:38;6.03;;;1.60;;
14778;SDS011;7481;53.750;10.570;2023-02-01T07:07:26;7.43;;;2.67;;
14778;SDS011;7481;53.750;10.570;2023-02-01T07:10:13;8.03;;;2.00;;
14778;SDS011;7481;53.750;10.570;2023-02-01T07:13:01;11.97;;;2.43;;
14778;SDS011;7481;53.750;10.570;2023-02-01T07:15:48;5.13;;;1.87;;
14778;SDS011;7481;53.750;10.570;2023-02-01T07:18:35;8.87;;;2.53;;
14778;SDS011;7481;53.750;10.570;2023-02-01T07:21:23;8.83;;;2.40;;
14778;SDS011;7481;53.750;10.570;2023-02-01T07:24:10;8.30;;;2.23;;
14778;SDS011;7481;53.750;10.570;2023-02-01T07:26:58;4.10;;;1.93;;
14778;SDS011;7481;53.750;10.570;2023-02-01T07:29:45;6.57;;;2.30;;
14778;SDS011;7481;53.750;10.570;2023-02-01T07:32:33;11.37;;;3.17;;
14778;SDS011;7481;53.750;10.570;2023-02-01T07:35:20;16.37;;;3.30;;
14778;SDS011;7481;53.750;10.570;2023-02-01T07:38:08;4.50;;;1.90;;
14778;SDS011;7481;53.750;10.570;2023-02-01T07:41:02;13.53;;;2.90;;
14778;SDS011;7481;53.750;10.570;2023-02-01T07:43:52;16.60;;;3.13;;
14778;SDS011;7481;53.750;10.570;2023-02-01T07:46:39;12.00;;;2.80;;
14778;SDS011;7481;53.750;10.570;2023-02-01T07:49:27;9.83;;;3.37;;
14778;SDS011;7481;53.750;10.570;2023-02-01T07:52:14;9.87;;;2.83;;
14778;SDS011;7481;53.750;10.570;2023-02-01T07:55:02;10.57;;;3.00;;
14778;SDS011;7481;53.750;10.570;2023-02-01T07:57:49;13.97;;;3.90;;
14778;SDS011;7481;53.750;10.570;2023-02-01T08:00:37;20.60;;;3.93;;
14778;SDS011;7481;53.750;10.570;2023-02-01T08:03:43;18.37;;;3.87;;
14778;SDS011;7481;53.750;10.570;2023-02-01T08:06:31;22.60;;;4.13;;
14778;SDS011;7481;53.750;10.570;2023-02-01T08:09:20;20.97;;;3.70;;
14778;SDS011;7481;53.750;10.570;2023-02-01T08:12:07;19.97;;;4.47;;
14778;SDS011;7481;53.750;10.570;2023-02-01T08:14:54;17.27;;;3.80;;
14778;SDS011;7481;53.750;10.570;2023-02-01T08:17:46;15.87;;;3.93;;
14778;SDS011;7481;53.750;10.570;2023-02-01T08:20:34;22.57;;;4.67;;
14778;SDS011;7481;53.750;10.570;2023-02-01T08:23:22;25.77;;;4.57;;
14778;SDS011;7481;53.750;10.570;2023-02-01T08:28:58;29.77;;;7.33;;
14778;SDS011;7481;53.750;10.570;2023-02-01T08:31:47;21.33;;;5.43;;
14778;SDS011;7481;53.750;10.570;2023-02-01T08:34:35;26.00;;;5.00;;
14778;SDS011;7481;53.750;10.570;2023-02-01T08:37:22;23.80;;;5.63;;
14778;SDS011;7481;53.750;10.570;2023-02-01T08:40:10;18.47;;;4.47;;
14778;SDS011;7481;53.750;10.570;2023-02-01T08:42:57;33.27;;;5.80;;
14778;SDS011;7481;53.750;10.570;2023-02-01T08:45:47;17.03;;;5.10;;
14778;SDS011;7481;53.750;10.570;2023-02-01T08:48:35;18.77;;;4.90;;
14778;SDS011;7481;53.750;10.570;2023-02-01T08:51:23;20.53;;;4.90;;
14778;SDS011;7481;53.750;10.570;2023-02-01T08:54:10;18.67;;;4.67;;
14778;SDS011;7481;53.750;10.570;2023-02-01T08:56:58;22.27;;;4.53;;
14778;SDS011;7481;53.750;10.570;2023-02-01T08:59:45;28.93;;;5.53;;
14778;SDS011;7481;53.750;10.570;2023-02-01T09:02:33;23.07;;;5.37;;
14778;SDS011;7481;53.750;10.570;2023-02-01T09:05:21;22.50;;;4.87;;
14778;SDS011;7481;53.750;10.570;2023-02-01T09:08:20;19.40;;;4.67;;
14778;SDS011;7481;53.750;10.570;2023-02-01T09:11:10;18.20;;;3.27;;
14778;SDS011;7481;53.750;10.570;2023-02-01T09:13:58;10.53;;;3.00;;
14778;SDS011;7481;53.750;10.570;2023-02-01T09:16:46;11.63;;;2.57;;
14778;SDS011;7481;53.750;10.570;2023-02-01T09:19:33;7.00;;;2.27;;
14778;SDS011;7481;53.750;10.570;2023-02-01T09:22:21;9.40;;;2.17;;
14778;SDS011;7481;53.750;10.570;2023-02-01T09:25:08;10.93;;;2.43;;
14778;SDS011;7481;53.750;10.570;2023-02-01T09:27:56;8.93;;;2.37;;
14778;SDS011;7481;53.750;10.570;2023-02-01T09:30:43;5.87;;;2.07;;
14778;SDS011;7481;53.750;10.570;2023-02-01T09:33:31;5.43;;;1.87;;
14778;SDS011;7481;53.750;10.570;2023-02-01T09:36:18;6.47;;;2.27;;
14778;SDS011;7481;53.750;10.570;2023-02-01T09:39:06;8.60;;;2.00;;
14778;SDS011;7481;53.750;10.570;2023-02-01T09:42:06;6.03;;;1.63;;
14778;SDS011;7481;53.750;10.570;2023-02-01T09:48:05;4.13;;;1.67;;
14778;SDS011;7481;53.750;10.570;2023-02-01T09:50:57;7.10;;;2.00;;
14778;SDS011;7481;53.750;10.570;2023-02-01T09:53:46;10.03;;;2.00;;
14778;SDS011;7481;53.750;10.570;2023-02-01T09:56:41;9.33;;;2.87;;
14778;SDS011;7481;53.750;10.570;2023-02-01T10:02:23;11.63;;;3.10;;
14778;SDS011;7481;53.750;10.570;2023-02-01T10:05:15;11.23;;;3.40;;
14778;SDS011;7481;53.750;10.570;2023-02-01T10:08:04;11.80;;;3.57;;
14778;SDS011;7481;53.750;10.570;2023-02-01T10:10:58;14.70;;;3.83;;
14778;SDS011;7481;53.750;10.570;2023-02-01T10:13:54;16.03;;;4.17;;
14778;SDS011;7481;53.750;10.570;2023-02-01T10:16:51;16.83;;;4.83;;
14778;SDS011;7481;53.750;10.570;2023-02-01T10:19:48;13.00;;;4.17;;
14778;SDS011;7481;53.750;10.570;2023-02-01T10:22:44;15.53;;;3.97;;
14778;SDS011;7481;53.750;10.570;2023-02-01T10:25:56;17.77;;;3.93;;
14778;SDS011;7481;53.750;10.570;2023-02-01T10:28:55;13.90;;;3.27;;
14778;SDS011;7481;53.750;10.570;2023-02-01T10:31:43;15.77;;;4.13;;
14778;SDS011;7481;53.750;10.570;2023-02-01T10:34:31;15.83;;;4.07;;
14778;SDS011;7481;53.750;10.570;2023-02-01T10:37:28;17.20;;;3.50;;
14778;SDS011;7481;53.750;10.570;2023-02-01T10:40:17;23.73;;;4.33;;
14778;SDS011;7481;53.750;10.570;2023-02-01T10:43:08;19.17;;;4.30;;
14778;SDS011;7481;53.750;10.570;2023-02-01T10:45:56;13.67;;;3.67;;
14778;SDS011;7481;53.750;10.570;2023-02-01T10:48:44;14.40;;;3.83;;
14778;SDS011;7481;53.750;10.570;2023-02-01T10:51:46;13.00;;;3.63;;
14778;SDS011;7481;53.750;10.570;2023-02-01T10:57:41;20.00;;;4.07;;
14778;SDS011;7481;53.750;10.570;2023-02-01T11:00:34;15.90;;;4.13;;
14778;SDS011;7481;53.750;10.570;2023-02-01T11:06:10;20.00;;;4.47;;
14778;SDS011;7481;53.750;10.570;2023-02-01T11:11:58;13.47;;;3.53;;
14778;SDS011;7481;53.750;10.570;2023-02-01T11:14:47;15.67;;;3.60;;
14778;SDS011;7481;53.750;10.570;2023-02-01T11:17:35;19.13;;;3.63;;
14778;SDS011;7481;53.750;10.570;2023-02-01T11:23:14;18.07;;;3.83;;
14778;SDS011;7481;53.750;10.570;2023-02-01T11:26:11;13.93;;;3.30;;
14778;SDS011;7481;53.750;10.570;2023-02-01T11:29:01;23.17;;;5.33;;
14778;SDS011;7481;53.750;10.570;2023-02-01T11:31:50;16.03;;;3.70;;
14778;SDS011;7481;53.750;10.570;2023-02-01T11:34:45;20.10;;;4.33;;
14778;SDS011;7481;53.750;10.570;2023-02-01T11:37:38;16.33;;;3.70;;
14778;SDS011;7481;53.750;10.570;2023-02-01T11:40:28;17.57;;;4.87;;
14778;SDS011;7481;53.750;10.570;2023-02-01T11:43:27;17.93;;;3.83;;
14778;SDS011;7481;53.750;10.570;2023-02-01T11:46:18;20.57;;;5.13;;
14778;SDS011;7481;53.750;10.570;2023-02-01T11:49:25;23.77;;;5.37;;
14778;SDS011;7481;53.750;10.570;2023-02-01T11:52:36;16.23;;;4.67;;
14778;SDS011;7481;53.750;10.570;2023-02-01T11:55:49;22.30;;;4.00;;
14778;SDS011;7481;53.750;10.570;2023-02-01T12:01:39;14.10;;;3.93;;
14778;SDS011;7481;53.750;10.570;2023-02-01T12:10:45;13.93;;;3.80;;
14778;SDS011;7481;53.750;10.570;2023-02-01T12:16:35;16.73;;;4.13;;
14778;SDS011;7481;53.750;10.570;2023-02-01T12:26:12;8.57;;;2.50;;
14778;SDS011;7481;53.750;10.570;2023-02-01T12:37:24;19.73;;;4.80;;
14778;SDS011;7481;53.750;10.570;2023-02-01T12:46:52;19.20;;;4.13;;
14778;SDS011;7481;53.750;10.570;2023-02-01T12:49:21;9.20;;;3.13;;
14778;SDS011;7481;53.750;10.570;2023-02-01T12:52:34;10.63;;;2.73;;
14778;SDS011;7481;53.750;10.570;2023-02-01T12:55:22;14.07;;;2.83;;
14778;SDS011;7481;53.750;10.570;2023-02-01T12:58:15;6.83;;;2.23;;
14778;SDS011;7481;53.750;10.570;2023-02-01T13:01:15;7.70;;;2.10;;
14778;SDS011;7481;53.750;10.570;2023-02-01T13:07:17;6.13;;;2.00;;
14778;SDS011;7481;53.750;10.570;2023-02-01T13:19:02;2.97;;;1.30;;
14778;SDS011;7481;53.750;10.570;2023-02-01T13:21:53;3.30;;;1.37;;
14778;SDS011;7481;53.750;10.570;2023-02-01T13:24:48;4.13;;;2.00;;
14778;SDS011;7481;53.750;10.570;2023-02-01T13:27:36;1.97;;;1.10;;
14778;SDS011;7481;53.750;10.570;2023-02-01T13:30:30;1.80;;;1.00;;
14778;SDS011;7481;53.750;10.570;2023-02-01T13:45:30;3.13;;;0.90;;
14778;SDS011;7481;53.750;10.570;2023-02-01T13:48:23;2.87;;;0.73;;
14778;SDS011;7481;53.750;10.570;2023-02-01T13:51:11;1.00;;;0.47;;
14778;SDS011;7481;53.750;10.570;2023-02-01T13:54:00;2.57;;;0.70;;
14778;SDS011;7481;53.750;10.570;2023-02-01T13:56:47;2.00;;;0.80;;
14778;SDS011;7481;53.750;10.570;2023-02-01T14:09:09;1.60;;;1.00;;
14778;SDS011;7481;53.750;10.570;2023-02-01T14:11:33;1.30;;;1.10;;
14778;SDS011;7481;53.750;10.570;2023-02-01T14:23:03;6.43;;;1.47;;
14778;SDS011;7481;53.750;10.570;2023-02-01T14:26:01;4.93;;;1.33;;
14778;SDS011;7481;53.750;10.570;2023-02-01T14:28:50;5.43;;;1.40;;
14778;SDS011;7481;53.750;10.570;2023-02-01T14:31:40;3.97;;;1.47;;
14778;SDS011;7481;53.750;10.570;2023-02-01T14:34:36;6.70;;;1.50;;
14778;SDS011;7481;53.750;10.570;2023-02-01T14:37:34;4.77;;;1.73;;
14778;SDS011;7481;53.750;10.570;2023-02-01T14:40:26;6.00;;;2.53;;
14778;SDS011;7481;53.750;10.570;2023-02-01T14:43:14;9.50;;;1.90;;
14778;SDS011;7481;53.750;10.570;2023-02-01T14:46:18;15.30;;;2.90;;
14778;SDS011;7481;53.750;10.570;2023-02-01T14:49:06;7.57;;;2.03;;
14778;SDS011;7481;53.750;10.570;2023-02-01T14:51:54;7.63;;;2.10;;
14778;SDS011;7481;53.750;10.570;2023-02-01T14:54:44;8.13;;;2.40;;
14778;SDS011;7481;53.750;10.570;2023-02-01T14:57:34;7.27;;;2.50;;
14778;SDS011;7481;53.750;10.570;2023-02-01T15:00:27;8.23;;;2.27;;
14778;SDS011;7481;53.750;10.570;2023-02-01T15:06:32;6.90;;;2.73;;
14778;SDS011;7481;53.750;10.570;2023-02-01T15:09:24;7.07;;;1.83;;
14778;SDS011;7481;53.750;10.570;2023-02-01T15:15:19;6.27;;;2.77;;
14778;SDS011;7481;53.750;10.570;2023-02-01T15:18:14;6.77;;;2.73;;
14778;SDS011;7481;53.750;10.570;2023-02-01T15:21:04;11.63;;;3.50;;
14778;SDS011;7481;53.750;10.570;2023-02-01T15:24:19;7.67;;;2.70;;
14778;SDS011;7481;53.750;10.570;2023-02-01T15:27:08;6.20;;;2.07;;
14778;SDS011;7481;53.750;10.570;2023-02-01T15:30:06;9.87;;;2.43;;
14778;SDS011;7481;53.750;10.570;2023-02-01T15:33:05;10.27;;;3.10;;
14778;SDS011;7481;53.750;10.570;2023-02-01T15:35:55;13.40;;;4.07;;
14778;SDS011;7481;53.750;10.570;2023-02-01T15:42:11;17.37;;;5.10;;
14778;SDS011;7481;53.750;10.570;2023-02-01T15:45:13;21.47;;;4.83;;
14778;SDS011;7481;53.750;10.570;2023-02-01T15:48:03;11.97;;;3.43;;
14778;SDS011;7481;53.750;10.570;2023-02-01T15:50:51;13.57;;;2.93;;
14778;SDS011;7481;53.750;10.570;2023-02-01T15:53:43;9.73;;;3.33;;
14778;SDS011;7481;53.750;10.570;2023-02-01T15:56:35;15.37;;;4.30;;
14778;SDS011;7481;53.750;10.570;2023-02-01T15:59:25;9.97;;;3.13;;
14778;SDS011;7481;53.750;10.570;2023-02-01T16:05:25;19.30;;;4.33;;
14778;SDS011;7481;53.750;10.570;2023-02-01T16:08:32;12.10;;;2.90;;
14778;SDS011;7481;53.750;10.570;2023-02-01T16:11:22;15.63;;;3.03;;
14778;SDS011;7481;53.750;10.570;2023-02-01T16:14:11;17.30;;;3.80;;
14778;SDS011;7481;53.750;10.570;2023-02-01T16:16:59;12.50;;;3.40;;
14778;SDS011;7481;53.750;10.570;2023-02-01T16:19:47;13.40;;;3.80;;
14778;SDS011;7481;53.750;10.570;2023-02-01T16:22:35;11.70;;;3.73;;
14778;SDS011;7481;53.750;10.570;2023-02-01T16:25:22;13.67;;;3.10;;
14778;SDS011;7481;53.750;10.570;2023-02-01T16:28:10;9.07;;;3.50;;
14778;SDS011;7481;53.750;10.570;2023-02-01T16:30:58;19.33;;;3.67;;
14778;SDS011;7481;53.750;10.570;2023-02-01T16:33:47;17.73;;;3.63;;
14778;SDS011;7481;53.750;10.570;2023-02-01T16:36:35;15.23;;;3.87;;
14778;SDS011;7481;53.750;10.570;2023-02-01T16:39:23;18.97;;;4.00;;
14778;SDS011;7481;53.750;10.570;2023-02-01T16:42:11;23.65;;;5.50;;
14778;SDS011;7481;53.750;10.570;2023-02-01T16:44:59;20.53;;;4.50;;
14778;SDS011;7481;53.750;10.570;2023-02-01T16:47:48;24.40;;;4.20;;
14778;SDS011;7481;53.750;10.570;2023-02-01T16:50:38;22.37;;;3.90;;
14778;SDS011;7481;53.750;10.570;2023-02-01T16:53:27;17.93;;;4.03;;
14778;SDS011;7481;53.750;10.570;2023-02-01T16:56:18;17.93;;;4.13;;
14778;SDS011;7481;53.750;10.570;2023-02-01T16:59:06;21.97;;;5.57;;
14778;SDS011;7481;53.750;10.570;2023-02-01T17:01:54;24.80;;;4.00;;
14778;SDS011;7481;53.750;10.570;2023-02-01T17:04:42;18.20;;;4.13;;
14778;SDS011;7481;53.750;10.570;2023-02-01T17:07:30;21.90;;;4.67;;
14778;SDS011;7481;53.750;10.570;2023-02-01T17:10:22;23.03;;;3.83;;
14778;SDS011;7481;53.750;10.570;2023-02-01T17:13:19;18.07;;;4.93;;
14778;SDS011;7481;53.750;10.570;2023-02-01T17:16:20;27.20;;;4.73;;
14778;SDS011;7481;53.750;10.570;2023-02-01T17:19:26;16.40;;;3.80;;
14778;SDS011;7481;53.750;10.570;2023-02-01T17:22:13;22.90;;;4.83;;
14778;SDS011;7481;53.750;10.570;2023-02-01T17:25:01;23.97;;;4.30;;
14778;SDS011;7481;53.750;10.570;2023-02-01T17:27:48;21.43;;;4.17;;
14778;SDS011;7481;53.750;10.570;2023-02-01T17:30:37;20.30;;;5.13;;
14778;SDS011;7481;53.750;10.570;2023-02-01T17:33:28;26.53;;;5.67;;
14778;SDS011;7481;53.750;10.570;2023-02-01T17:36:21;20.60;;;4.63;;
14778;SDS011;7481;53.750;10.570;2023-02-01T17:39:09;30.30;;;5.50;;
14778;SDS011;7481;53.750;10.570;2023-02-01T17:41:58;20.90;;;4.60;;
14778;SDS011;7481;53.750;10.570;2023-02-01T17:44:45;23.23;;;5.90;;
14778;SDS011;7481;53.750;10.570;2023-02-01T17:47:33;14.27;;;4.27;;
14778;SDS011;7481;53.750;10.570;2023-02-01T17:50:20;19.87;;;4.10;;
14778;SDS011;7481;53.750;10.570;2023-02-01T17:53:09;24.97;;;5.70;;
14778;SDS011;7481;53.750;10.570;2023-02-01T17:55:56;25.63;;;5.03;;
14778;SDS011;7481;53.750;10.570;2023-02-01T17:58:44;24.23;;;4.80;;
14778;SDS011;7481;53.750;10.570;2023-02-01T18:01:32;17.50;;;4.63;;
14778;SDS011;7481;53.750;10.570;2023-02-01T18:04:19;25.27;;;5.13;;
14778;SDS011;7481;53.750;10.570;2023-02-01T18:07:07;21.67;;;4.57;;
14778;SDS011;7481;53.750;10.570;2023-02-01T18:09:55;20.27;;;5.10;;
14778;SDS011;7481;53.750;10.570;2023-02-01T18:12:43;26.33;;;4.93;;
14778;SDS011;7481;53.750;10.570;2023-02-01T18:15:30;23.67;;;4.77;;
14778;SDS011;7481;53.750;10.570;2023-02-01T18:18:18;31.83;;;4.93;;
14778;SDS011;7481;53.750;10.570;2023-02-01T18:21:06;26.33;;;6.17;;
14778;SDS011;7481;53.750;10.570;2023-02-01T18:23:53;22.37;;;4.70;;
14778;SDS011;7481;53.750;10.570;2023-02-01T18:26:41;22.70;;;4.60;;
14778;SDS011;7481;53.750;10.570;2023-02-01T18:29:29;17.33;;;5.53;;
14778;SDS011;7481;53.750;10.570;2023-02-01T18:32:16;23.80;;;5.03;;
14778;SDS011;7481;53.750;10.570;2023-02-01T18:35:12;21.73;;;4.63;;
14778;SDS011;7481;53.750;10.570;2023-02-01T18:38:02;21.07;;;4.63;;
14778;SDS011;7481;53.750;10.570;2023-02-01T18:40:50;16.67;;;3.73;;
14778;SDS011;7481;53.750;10.570;2023-02-01T18:43:38;25.37;;;4.87;;
14778;SDS011;7481;53.750;10.570;2023-02-01T18:46:26;25.83;;;5.17;;
14778;SDS011;7481;53.750;10.570;2023-02-01T18:49:14;24.00;;;4.80;;
14778;SDS011;7481;53.750;10.570;2023-02-01T18:52:04;18.87;;;4.13;;
14778;SDS011;7481;53.750;10.570;2023-02-01T18:54:52;22.53;;;5.47;;
14778;SDS011;7481;53.750;10.570;2023-02-01T18:57:45;24.57;;;5.07;;
14778;SDS011;7481;53.750;10.570;2023-02-01T19:00:34;19.50;;;5.10;;
14778;SDS011;7481;53.750;10.570;2023-02-01T19:03:22;16.07;;;4.23;;